This is the latest recevied weather packets stored in our database for station/object IV3IYL-13. If no packets are shown the sender has not sent any weather packets the latest 10 day(s).
| Time | Temp. | Humidity | Pressure | Rain* | Wind** | Luminosity | Snow |
|---|---|---|---|---|---|---|---|
| 1777573261 | 15° C | 42% | 1023.8 hPa | - | - | - | - |
| 1777569061 | 17.22° C | 33% | 1023.2 hPa | - | - | - | - |
| 1777568461 | 17.78° C | 29% | 1023.2 hPa | - | - | - | - |
| 1777567261 | 18.33° C | 31% | 1023.1 hPa | - | - | - | - |
| 1777566061 | 18.89° C | 29% | 1023 hPa | - | - | - | - |
| 1777564876 | 18.89° C | 30% | 1022.9 hPa | - | - | - | - |
| 1777561261 | 20.56° C | 31% | 1022.9 hPa | - | - | - | - |
| 1777560065 | 18.89° C | 32% | 1022.9 hPa | - | - | - | - |
| 1777558861 | 18.33° C | 33% | 1022.8 hPa | - | - | - | - |
| 1777550460 | 17.22° C | 42% | 1024.1 hPa | - | - | - | - |
| 1777548060 | 16.11° C | 40% | 1024.5 hPa | - | - | - | - |
| 1777543860 | 14.44° C | 41% | 1025 hPa | - | - | - | - |
| 1777542659 | 15° C | 43% | 1025.2 hPa | - | - | - | - |
| 1777542059 | 14.44° C | 45% | 1025.3 hPa | - | - | - | - |
| 1777540259 | 13.89° C | 46% | 1025.4 hPa | - | - | - | - |
| 1777539059 | 13.89° C | 45% | 1025.4 hPa | - | - | - | - |
| 1777532459 | 12.78° C | 51% | 1025 hPa | - | - | - | - |
| 1777530059 | 11.67° C | 49% | 1024.8 hPa | - | - | - | - |
| 1777528859 | 11.67° C | 47% | 1024.6 hPa | - | - | - | - |
| 1777527659 | 11.67° C | 54% | 1024.4 hPa | - | - | - | - |
| 1777522859 | 10.56° C | 61% | 1023.7 hPa | - | - | - | - |
| 1777517458 | 10.56° C | 64% | 1023.5 hPa | - | - | - | - |
| 1777516863 | 11.11° C | 62% | 1023.5 hPa | - | - | - | - |
| 1777516258 | 11.11° C | 61% | 1023.4 hPa | - | - | - | - |
| 1777515658 | 11.67° C | 57% | 1023.4 hPa | - | - | - | - |
* Rain since midnight (hover to see other rain measurements)
** Current wind speed in m/s (hover to see current wind gust speed)